Time;durP1;ratioP1;P1;durP2;ratioP2;P2;SDS_P1;SDS_P2;PMS_P1;PMS_P2;Temp;Humidity;BMP_temperature;BMP_pressure;BME280_temperature;BME280_humidity;BME280_pressure;Samples;Min_cycle;Max_cycle;Signal;HPM_P1;HPM_P2
2022/04/02 00:01:51;0.00;0.00;0.62;0.00;0.00;0.62;1.70;0.90;;;22.10;18.30;;;;;;2249258;61;20367;-56
2022/04/02 00:04:36;0.00;0.00;0.62;0.00;0.00;0.62;1.73;0.83;;;22.10;18.30;;;;;;2248841;61;20415;-58
2022/04/02 00:07:21;0.00;0.00;0.62;0.00;0.00;0.62;1.80;0.80;;;22.00;18.20;;;;;;2247480;61;20765;-59
2022/04/02 00:10:08;0.00;0.00;0.62;0.00;0.00;0.62;1.80;1.00;;;22.00;18.20;;;;;;2250667;61;20526;-60
2022/04/02 00:12:55;0.00;0.00;0.62;0.00;0.00;0.62;1.40;0.80;;;22.00;18.20;;;;;;2250365;61;20368;-57
2022/04/02 00:15:40;0.00;0.00;0.62;0.00;0.00;0.62;1.30;0.70;;;22.00;18.10;;;;;;2251075;61;20500;-58
2022/04/02 00:18:26;0.00;0.00;0.62;0.00;0.00;0.62;1.30;0.80;;;22.00;18.10;;;;;;2246797;61;20363;-58
2022/04/02 00:21:11;0.00;0.00;0.62;0.00;0.00;0.62;1.43;0.83;;;22.00;18.10;;;;;;2252331;61;20362;-59
2022/04/02 00:23:55;0.00;0.00;0.62;0.00;0.00;0.62;1.60;0.90;;;22.00;18.00;;;;;;2251102;61;20952;-57
2022/04/02 00:26:41;0.00;0.00;0.62;0.00;0.00;0.62;1.30;0.80;;;21.90;18.00;;;;;;2479676;53;20897;-58
2022/04/02 00:29:27;0.00;0.00;0.62;0.00;0.00;0.62;1.70;1.00;;;21.90;18.00;;;;;;2239933;61;21001;-58
2022/04/02 00:32:12;0.00;0.00;0.62;0.00;0.00;0.62;2.27;1.17;;;21.90;18.00;;;;;;2245863;61;20445;-56
2022/04/02 00:34:57;0.00;0.00;0.62;0.00;0.00;0.62;1.40;0.90;;;21.90;18.00;;;;;;2245311;61;20969;-58
2022/04/02 00:37:42;0.00;0.00;0.62;0.00;0.00;0.62;1.93;1.07;;;21.80;17.90;;;;;;2245206;61;20407;-58
2022/04/02 00:40:28;0.00;0.00;0.62;0.00;0.00;0.62;2.07;1.47;;;21.80;17.90;;;;;;2244088;61;20479;-57
2022/04/02 00:43:24;0.00;0.00;0.62;0.00;0.00;0.62;2.13;1.03;;;21.80;18.00;;;;;;2242048;61;20365;-58
2022/04/02 00:46:11;0.00;0.00;0.62;0.00;0.00;0.62;2.33;1.07;;;21.80;18.00;;;;;;2245344;61;20368;-53
2022/04/02 00:48:56;0.00;0.00;0.62;0.00;0.00;0.62;1.60;1.13;;;21.70;17.90;;;;;;2238164;61;20363;-56
2022/04/02 00:51:42;0.00;0.00;0.62;0.00;0.00;0.62;1.43;0.90;;;21.70;17.90;;;;;;2241610;61;20411;-55
2022/04/02 00:54:27;0.00;0.00;0.62;0.00;0.00;0.62;1.60;1.20;;;21.70;17.90;;;;;;2245232;61;20902;-61
2022/04/02 00:57:12;0.00;0.00;0.62;0.00;0.00;0.62;2.00;0.90;;;21.70;17.90;;;;;;2241590;61;20442;-59
2022/04/02 00:59:58;0.00;0.00;0.62;0.00;0.00;0.62;1.60;0.90;;;21.70;17.90;;;;;;2242360;61;20455;-54
2022/04/02 01:02:43;0.00;0.00;0.62;0.00;0.00;0.62;1.50;0.90;;;21.70;17.90;;;;;;2245694;61;20381;-58
2022/04/02 01:05:28;0.00;0.00;0.62;0.00;0.00;0.62;1.60;0.90;;;21.60;17.90;;;;;;2242248;61;20364;-55
2022/04/02 01:08:14;0.00;0.00;0.62;0.00;0.00;0.62;1.83;1.07;;;21.60;17.90;;;;;;2241550;61;20375;-57
2022/04/02 01:11:00;0.00;0.00;0.62;0.00;0.00;0.62;1.97;1.20;;;21.60;17.90;;;;;;2237907;61;20443;-57
2022/04/02 01:13:47;0.00;0.00;0.62;0.00;0.00;0.62;1.50;0.80;;;21.60;17.90;;;;;;2241750;61;20420;-56
2022/04/02 01:16:35;0.00;0.00;0.62;0.00;0.00;0.62;1.57;0.90;;;21.60;17.90;;;;;;2241727;61;20376;-59
2022/04/02 01:19:23;0.00;0.00;0.62;0.00;0.00;0.62;1.30;0.80;;;21.60;17.90;;;;;;2241130;61;20389;-54
2022/04/02 01:22:22;0.00;0.00;0.62;0.00;0.00;0.62;1.47;0.90;;;21.50;17.80;;;;;;2244654;61;20394;-57
2022/04/02 01:25:10;0.00;0.00;0.62;0.00;0.00;0.62;3.60;1.03;;;21.50;17.80;;;;;;2243790;61;20783;-55
2022/04/02 01:28:03;0.00;0.00;0.62;0.00;0.00;0.62;2.20;1.07;;;21.50;17.80;;;;;;2241581;61;20908;-56
2022/04/02 01:30:51;0.00;0.00;0.62;0.00;0.00;0.62;1.40;0.80;;;21.50;17.80;;;;;;2244808;61;20941;-52
2022/04/02 01:33:36;0.00;0.00;0.62;0.00;0.00;0.62;4.40;1.00;;;21.50;17.90;;;;;;2243781;61;20364;-57
2022/04/02 01:36:25;0.00;0.00;0.62;0.00;0.00;0.62;1.53;0.93;;;21.40;17.80;;;;;;2241665;61;20380;-58
2022/04/02 01:39:21;0.00;0.00;0.62;0.00;0.00;0.62;1.57;0.90;;;21.40;17.80;;;;;;2240649;61;20385;-58
2022/04/02 01:42:07;0.00;0.00;0.62;0.00;0.00;0.62;4.17;1.03;;;21.40;18.30;;;;;;2242119;61;20765;-53
2022/04/02 01:44:59;0.00;0.00;0.62;0.00;0.00;0.62;1.50;0.90;;;21.40;17.80;;;;;;2245680;61;20361;-56
2022/04/02 01:47:55;0.00;0.00;0.62;0.00;0.00;0.62;2.70;0.93;;;21.40;17.80;;;;;;2244162;61;20373;-55
2022/04/02 01:50:46;0.00;0.00;0.62;0.00;0.00;0.62;1.50;0.93;;;21.40;17.80;;;;;;2478917;53;20468;-53
2022/04/02 01:53:31;0.00;0.00;0.62;0.00;0.00;0.62;1.60;0.90;;;21.30;17.70;;;;;;2241619;61;20364;-58
2022/04/02 01:56:17;0.00;0.00;0.62;0.00;0.00;0.62;1.70;0.80;;;21.30;17.70;;;;;;2240815;61;20361;-57
2022/04/02 01:59:07;0.00;0.00;0.62;0.00;0.00;0.62;3.33;1.27;;;21.30;17.70;;;;;;2244643;61;20393;-54
2022/04/02 02:01:51;0.00;0.00;0.62;0.00;0.00;0.62;2.10;1.00;;;21.30;17.70;;;;;;2243660;61;20412;-54
2022/04/02 02:04:37;0.00;0.00;0.62;0.00;0.00;0.62;3.77;1.00;;;21.30;17.70;;;;;;2241577;61;20400;-55
2022/04/02 02:07:22;0.00;0.00;0.62;0.00;0.00;0.62;1.50;0.80;;;21.20;17.60;;;;;;2244738;61;20903;-53
2022/04/02 02:10:10;0.00;0.00;0.62;0.00;0.00;0.62;1.50;1.00;;;21.20;17.60;;;;;;2240274;61;20396;-57
2022/04/02 02:13:19;0.00;0.00;0.62;0.00;0.00;0.62;1.40;0.90;;;21.20;17.60;;;;;;2244332;61;20439;-57
2022/04/02 02:16:06;0.00;0.00;0.62;0.00;0.00;0.62;2.33;1.00;;;21.20;17.70;;;;;;2241159;61;20407;-59
2022/04/02 02:18:53;0.00;0.00;0.62;0.00;0.00;0.62;1.80;1.00;;;21.20;17.80;;;;;;2241575;61;20373;-53
2022/04/02 02:21:38;0.00;0.00;0.62;0.00;0.00;0.62;1.90;1.00;;;21.10;17.60;;;;;;2244675;61;20369;-51
2022/04/02 02:24:22;0.00;0.00;0.62;0.00;0.00;0.62;1.90;0.90;;;21.10;17.60;;;;;;2240815;61;20418;-59
2022/04/02 02:27:08;0.00;0.00;0.62;0.00;0.00;0.62;1.67;1.10;;;21.10;17.60;;;;;;2245575;61;20827;-57
2022/04/02 02:29:54;0.00;0.00;0.62;0.00;0.00;0.62;2.07;1.07;;;21.10;17.70;;;;;;2245010;61;20528;-55
2022/04/02 02:32:40;0.00;0.00;0.62;0.00;0.00;0.62;1.40;0.80;;;21.10;17.70;;;;;;2244598;61;20410;-58
2022/04/02 02:38:28;0.00;0.00;0.62;0.00;0.00;0.62;1.30;0.80;;;21.00;17.60;;;;;;2244693;61;20848;-58
2022/04/02 02:41:25;0.00;0.00;0.62;0.00;0.00;0.62;1.60;1.00;;;21.00;17.60;;;;;;2245668;61;20391;-55
2022/04/02 02:44:16;0.00;0.00;0.62;0.00;0.00;0.62;1.30;0.93;;;21.00;17.70;;;;;;2245307;61;20364;-54
2022/04/02 02:47:08;0.00;0.00;0.62;0.00;0.00;0.62;1.60;1.10;;;21.00;17.60;;;;;;2244887;61;20448;-58
2022/04/02 02:49:36;0.00;0.00;0.62;0.00;0.00;0.62;1.40;0.90;;;21.00;17.60;;;;;;2244917;61;20382;-56
2022/04/02 02:52:07;0.00;0.00;0.62;0.00;0.00;0.62;1.67;1.07;;;21.00;17.70;;;;;;2245241;61;20348;-53
2022/04/02 02:54:33;0.00;0.00;0.62;0.00;0.00;0.62;1.43;0.90;;;20.90;17.60;;;;;;2244897;61;20365;-59
2022/04/02 02:57:01;0.00;0.00;0.62;0.00;0.00;0.62;2.50;1.10;;;20.90;17.60;;;;;;2250212;61;20357;-57
2022/04/02 02:59:27;0.00;0.00;0.62;0.00;0.00;0.62;1.50;0.80;;;20.90;17.60;;;;;;2250047;61;20416;-54
2022/04/02 03:01:54;0.00;0.00;0.62;0.00;0.00;0.62;1.67;1.10;;;20.90;17.60;;;;;;2245394;61;20403;-56
2022/04/02 03:04:23;0.00;0.00;0.62;0.00;0.00;0.62;1.53;0.90;;;20.90;17.60;;;;;;2246140;61;20360;-54
2022/04/02 03:06:51;0.00;0.00;0.62;0.00;0.00;0.62;2.57;1.10;;;20.90;17.60;;;;;;2246426;61;20433;-56
2022/04/02 03:09:18;0.00;0.00;0.62;0.00;0.00;0.62;1.80;1.07;;;20.90;17.60;;;;;;2244996;61;20467;-56
2022/04/02 03:11:46;0.00;0.00;0.62;0.00;0.00;0.62;1.50;1.13;;;20.90;17.60;;;;;;2246285;61;20384;-55
2022/04/02 03:14:15;0.00;0.00;0.62;0.00;0.00;0.62;1.40;0.90;;;20.80;17.60;;;;;;2246615;61;20357;-55
2022/04/02 03:16:42;0.00;0.00;0.62;0.00;0.00;0.62;1.83;1.10;;;20.90;17.60;;;;;;2245323;61;20372;-57
2022/04/02 03:19:13;0.00;0.00;0.62;0.00;0.00;0.62;1.30;0.90;;;20.80;17.60;;;;;;2246187;61;20921;-58
2022/04/02 03:21:41;0.00;0.00;0.62;0.00;0.00;0.62;1.97;1.30;;;20.80;17.50;;;;;;2250260;61;20379;-56
2022/04/02 03:24:07;0.00;0.00;0.62;0.00;0.00;0.62;1.93;1.10;;;20.80;17.50;;;;;;2244786;61;20560;-56
2022/04/02 03:26:37;0.00;0.00;0.62;0.00;0.00;0.62;1.70;1.30;;;20.80;17.50;;;;;;2245139;61;20357;-52
2022/04/02 03:29:11;0.00;0.00;0.62;0.00;0.00;0.62;1.47;1.10;;;20.80;17.50;;;;;;2244575;61;20447;-54
2022/04/02 03:31:38;0.00;0.00;0.62;0.00;0.00;0.62;2.00;1.17;;;20.80;17.50;;;;;;2243904;61;20438;-55
2022/04/02 03:34:05;0.00;0.00;0.62;0.00;0.00;0.62;1.40;0.90;;;20.70;17.50;;;;;;2244612;61;20415;-55
2022/04/02 03:36:31;0.00;0.00;0.62;0.00;0.00;0.62;1.90;1.00;;;20.70;17.50;;;;;;2248588;61;20443;-57
2022/04/02 03:39:02;0.00;0.00;0.62;0.00;0.00;0.62;1.67;1.03;;;20.70;17.50;;;;;;2247658;61;20377;-55
2022/04/02 03:41:29;0.00;0.00;0.62;0.00;0.00;0.62;1.70;1.00;;;20.70;17.50;;;;;;2246132;61;20368;-56
2022/04/02 03:43:58;0.00;0.00;0.62;0.00;0.00;0.62;1.90;1.10;;;20.70;17.50;;;;;;2249774;61;20414;-57
2022/04/02 03:49:13;0.00;0.00;0.62;0.00;0.00;0.62;1.83;0.90;;;20.70;17.50;;;;;;2247365;61;20379;-58
2022/04/02 03:51:41;0.00;0.00;0.62;0.00;0.00;0.62;1.80;1.20;;;20.60;17.50;;;;;;2247485;61;20384;-61
2022/04/02 03:54:13;0.00;0.00;0.62;0.00;0.00;0.62;1.40;1.00;;;20.60;17.50;;;;;;2246647;61;20761;-62
2022/04/02 03:56:44;0.00;0.00;0.62;0.00;0.00;0.62;2.00;1.20;;;20.60;17.50;;;;;;2244496;61;20373;-60
2022/04/02 03:59:13;0.00;0.00;0.62;0.00;0.00;0.62;1.70;1.00;;;20.60;17.50;;;;;;2244012;61;20924;-58
2022/04/02 04:01:42;0.00;0.00;0.62;0.00;0.00;0.62;1.53;1.07;;;20.60;17.50;;;;;;2243194;61;20348;-62
2022/04/02 04:04:09;0.00;0.00;0.62;0.00;0.00;0.62;1.90;1.30;;;20.60;17.60;;;;;;2244427;61;20415;-60
2022/04/02 04:06:35;0.00;0.00;0.62;0.00;0.00;0.62;1.60;1.07;;;20.50;17.50;;;;;;2244350;61;20356;-61
2022/04/02 04:09:02;0.00;0.00;0.62;0.00;0.00;0.62;1.57;1.07;;;20.50;17.50;;;;;;2242949;61;20377;-56
2022/04/02 04:11:30;0.00;0.00;0.62;0.00;0.00;0.62;2.07;1.30;;;20.50;17.50;;;;;;2248275;61;20847;-53
2022/04/02 04:13:56;0.00;0.00;0.62;0.00;0.00;0.62;2.20;1.40;;;20.50;17.50;;;;;;2244312;61;20376;-58
2022/04/02 04:16:23;0.00;0.00;0.62;0.00;0.00;0.62;1.70;1.20;;;20.50;17.50;;;;;;2243426;61;20364;-57
2022/04/02 04:18:49;0.00;0.00;0.62;0.00;0.00;0.62;2.20;1.00;;;20.50;17.50;;;;;;2244136;61;20356;-53
2022/04/02 04:21:15;0.00;0.00;0.62;0.00;0.00;0.62;2.03;1.20;;;20.50;17.60;;;;;;2244619;61;20360;-55
2022/04/02 04:23:44;0.00;0.00;0.62;0.00;0.00;0.62;1.70;1.07;;;20.40;17.50;;;;;;2243083;61;20475;-57
2022/04/02 04:26:12;0.00;0.00;0.62;0.00;0.00;0.62;1.90;1.17;;;20.40;17.50;;;;;;2244191;61;20368;-60
2022/04/02 04:28:42;0.00;0.00;0.62;0.00;0.00;0.62;1.70;1.00;;;20.40;17.50;;;;;;2241050;61;20369;-54
2022/04/02 04:31:10;0.00;0.00;0.62;0.00;0.00;0.62;1.60;1.13;;;20.40;17.50;;;;;;2246960;61;20899;-56
2022/04/02 04:33:39;0.00;0.00;0.62;0.00;0.00;0.62;1.90;1.10;;;20.40;17.50;;;;;;2248462;61;20451;-54
2022/04/02 04:36:06;0.00;0.00;0.62;0.00;0.00;0.62;2.20;1.23;;;20.40;17.50;;;;;;2252211;61;20796;-55
2022/04/02 04:38:32;0.00;0.00;0.62;0.00;0.00;0.62;2.00;1.20;;;20.40;17.50;;;;;;2247048;61;20427;-56
2022/04/02 04:41:03;0.00;0.00;0.62;0.00;0.00;0.62;1.80;1.10;;;20.30;17.50;;;;;;2245475;61;20379;-55
2022/04/02 04:43:30;0.00;0.00;0.62;0.00;0.00;0.62;1.70;1.10;;;20.30;17.50;;;;;;2248232;61;20975;-53
2022/04/02 04:45:58;0.00;0.00;0.62;0.00;0.00;0.62;2.27;1.23;;;20.30;17.50;;;;;;2247336;61;20351;-60
2022/04/02 04:48:24;0.00;0.00;0.62;0.00;0.00;0.62;1.80;1.27;;;20.30;17.50;;;;;;2252291;61;20454;-56
2022/04/02 04:50:54;0.00;0.00;0.62;0.00;0.00;0.62;1.83;1.30;;;20.30;17.50;;;;;;2248542;61;20394;-57
2022/04/02 04:53:22;0.00;0.00;0.62;0.00;0.00;0.62;2.10;1.20;;;20.30;17.50;;;;;;2247997;61;20379;-58
2022/04/02 04:55:50;0.00;0.00;0.62;0.00;0.00;0.62;1.60;1.20;;;20.30;17.50;;;;;;2250291;61;20733;-62
2022/04/02 04:58:19;0.00;0.00;0.62;0.00;0.00;0.62;1.70;1.10;;;20.30;17.50;;;;;;2249032;61;20362;-63
2022/04/02 05:00:46;0.00;0.00;0.62;0.00;0.00;0.62;1.50;1.00;;;20.30;17.50;;;;;;2247122;61;20957;-52
2022/04/02 05:03:15;0.00;0.00;0.62;0.00;0.00;0.62;1.40;0.90;;;20.20;17.40;;;;;;2248811;61;20363;-58
2022/04/02 05:05:45;0.00;0.00;0.62;0.00;0.00;0.62;1.43;1.03;;;20.20;17.40;;;;;;2248682;61;20418;-55
2022/04/02 05:08:16;0.00;0.00;0.62;0.00;0.00;0.62;1.70;0.90;;;20.20;17.40;;;;;;2247998;61;20360;-56
2022/04/02 05:10:43;0.00;0.00;0.62;0.00;0.00;0.62;1.57;1.17;;;20.20;17.40;;;;;;2248887;61;20383;-54
2022/04/02 05:13:15;0.00;0.00;0.62;0.00;0.00;0.62;1.80;1.20;;;20.20;17.40;;;;;;2248829;61;20391;-58
2022/04/02 05:15:45;0.00;0.00;0.62;0.00;0.00;0.62;1.80;1.23;;;20.20;17.50;;;;;;2247823;61;20696;-53
2022/04/02 05:18:14;0.00;0.00;0.62;0.00;0.00;0.62;2.23;1.30;;;20.20;17.50;;;;;;2248661;61;20397;-59
2022/04/02 05:20:41;0.00;0.00;0.62;0.00;0.00;0.62;2.03;1.40;;;20.20;17.50;;;;;;2248736;61;20470;-57
2022/04/02 05:23:27;0.00;0.00;0.62;0.00;0.00;0.62;1.83;1.20;;;20.10;17.40;;;;;;2248867;61;20378;-54
2022/04/02 05:26:13;0.00;0.00;0.62;0.00;0.00;0.62;2.17;1.10;;;20.10;17.40;;;;;;2248708;61;20376;-56
2022/04/02 05:29:01;0.00;0.00;0.62;0.00;0.00;0.62;1.87;1.30;;;20.10;17.40;;;;;;2244148;61;20902;-55
2022/04/02 05:31:47;0.00;0.00;0.62;0.00;0.00;0.62;2.00;1.40;;;20.10;17.50;;;;;;2248949;61;20390;-56
2022/04/02 05:34:33;0.00;0.00;0.62;0.00;0.00;0.62;1.90;1.30;;;20.10;17.50;;;;;;2248839;61;20440;-56
2022/04/02 05:37:17;0.00;0.00;0.62;0.00;0.00;0.62;2.60;1.10;;;20.00;17.40;;;;;;2244455;61;21141;-56
2022/04/02 05:40:04;0.00;0.00;0.62;0.00;0.00;0.62;1.70;1.20;;;20.00;17.40;;;;;;2247794;61;20915;-58
2022/04/02 05:42:49;0.00;0.00;0.62;0.00;0.00;0.62;2.43;1.90;;;20.00;17.40;;;;;;2245447;61;20499;-60
2022/04/02 05:45:34;0.00;0.00;0.62;0.00;0.00;0.62;2.00;1.10;;;20.00;17.50;;;;;;2241906;61;20372;-58
2022/04/02 05:48:20;0.00;0.00;0.62;0.00;0.00;0.62;2.23;1.40;;;20.00;17.50;;;;;;2248718;61;20368;-59
2022/04/02 05:51:06;0.00;0.00;0.62;0.00;0.00;0.62;1.87;1.20;;;20.00;17.50;;;;;;2247498;61;20406;-60
2022/04/02 05:53:51;0.00;0.00;0.62;0.00;0.00;0.62;2.40;1.50;;;20.00;17.50;;;;;;2248591;61;20843;-60
2022/04/02 05:56:36;0.00;0.00;0.62;0.00;0.00;0.62;1.80;1.20;;;20.00;17.50;;;;;;2248611;61;20411;-60
2022/04/02 05:59:21;0.00;0.00;0.62;0.00;0.00;0.62;2.53;1.30;;;20.00;17.50;;;;;;2247338;61;20392;-56
2022/04/02 06:02:06;0.00;0.00;0.62;0.00;0.00;0.62;2.83;1.33;;;19.90;17.50;;;;;;2248261;61;20384;-58
2022/04/02 06:04:51;0.00;0.00;0.62;0.00;0.00;0.62;2.10;1.40;;;19.90;17.50;;;;;;2248629;61;20375;-57
2022/04/02 06:07:37;0.00;0.00;0.62;0.00;0.00;0.62;1.90;1.00;;;19.90;17.50;;;;;;2247523;61;21106;-57
2022/04/02 06:10:22;0.00;0.00;0.62;0.00;0.00;0.62;1.70;1.17;;;19.90;17.50;;;;;;2248518;61;20395;-56
2022/04/02 06:13:06;0.00;0.00;0.62;0.00;0.00;0.62;1.90;1.40;;;19.90;17.50;;;;;;2247445;61;20557;-59
2022/04/02 06:15:51;0.00;0.00;0.62;0.00;0.00;0.62;1.87;1.30;;;19.90;17.50;;;;;;2248371;61;20414;-57
2022/04/02 06:18:35;0.00;0.00;0.62;0.00;0.00;0.62;1.70;1.20;;;19.90;17.50;;;;;;2248609;61;20418;-57
2022/04/02 06:21:20;0.00;0.00;0.62;0.00;0.00;0.62;1.97;1.20;;;19.90;17.50;;;;;;2247508;61;20343;-56
2022/04/02 06:24:06;0.00;0.00;0.62;0.00;0.00;0.62;2.53;1.50;;;19.90;17.50;;;;;;2248066;61;20419;-54
2022/04/02 06:26:51;0.00;0.00;0.62;0.00;0.00;0.62;1.70;1.17;;;19.90;17.50;;;;;;2244886;61;20376;-60
2022/04/02 06:29:35;0.00;0.00;0.62;0.00;0.00;0.62;2.43;1.37;;;19.80;17.50;;;;;;2243158;61;20392;-60
2022/04/02 06:32:22;0.00;0.00;0.62;0.00;0.00;0.62;2.00;1.43;;;19.90;17.60;;;;;;2244548;61;20421;-59
2022/04/02 06:35:08;0.00;0.00;0.62;0.00;0.00;0.62;1.97;1.07;;;19.80;17.50;;;;;;2246636;61;20415;-61
2022/04/02 06:37:54;0.00;0.00;0.62;0.00;0.00;0.62;1.80;1.30;;;19.80;17.60;;;;;;2247644;61;20581;-63
2022/04/02 06:40:40;0.00;0.00;0.62;0.00;0.00;0.62;3.53;1.70;;;19.80;17.60;;;;;;2244618;61;20440;-60
2022/04/02 06:43:24;0.00;0.00;0.62;0.00;0.00;0.62;1.73;1.20;;;19.80;17.60;;;;;;2243773;61;20885;-57
2022/04/02 06:46:17;0.00;0.00;0.62;0.00;0.00;0.62;2.67;1.30;;;19.80;17.60;;;;;;2247397;61;20372;-58
2022/04/02 06:49:02;0.00;0.00;0.62;0.00;0.00;0.62;1.80;1.20;;;19.80;17.60;;;;;;2244575;61;20832;-54
2022/04/02 06:51:46;0.00;0.00;0.62;0.00;0.00;0.62;1.77;1.20;;;19.80;17.50;;;;;;2243468;61;20992;-53
2022/04/02 06:54:31;0.00;0.00;0.62;0.00;0.00;0.62;2.00;1.10;;;19.80;17.50;;;;;;2245627;61;20404;-57
2022/04/02 06:57:21;0.00;0.00;0.62;0.00;0.00;0.62;1.67;1.10;;;19.80;17.50;;;;;;2248028;61;20372;-56
2022/04/02 07:00:09;0.00;0.00;0.62;0.00;0.00;0.62;1.47;1.03;;;19.80;17.50;;;;;;2248245;61;20423;-56
2022/04/02 07:02:54;0.00;0.00;0.62;0.00;0.00;0.62;2.27;1.57;;;19.80;17.50;;;;;;2248659;61;20374;-56
2022/04/02 07:05:38;0.00;0.00;0.62;0.00;0.00;0.62;2.30;1.47;;;19.80;17.50;;;;;;2247406;61;20375;-53
2022/04/02 07:08:23;0.00;0.00;0.62;0.00;0.00;0.62;1.80;1.10;;;19.80;17.50;;;;;;2248584;61;20423;-57
2022/04/02 07:11:08;0.00;0.00;0.62;0.00;0.00;0.62;2.83;1.65;;;19.80;17.50;;;;;;2248244;61;20358;-61
2022/04/02 07:13:53;0.00;0.00;0.62;0.00;0.00;0.62;1.90;1.10;;;19.80;17.50;;;;;;2247527;61;20778;-59
2022/04/02 07:16:39;0.00;0.00;0.62;0.00;0.00;0.62;1.77;1.23;;;19.80;17.50;;;;;;2248717;61;20410;-58
2022/04/02 07:19:25;0.00;0.00;0.62;0.00;0.00;0.62;1.87;1.17;;;19.80;17.50;;;;;;2247764;61;20396;-55
2022/04/02 07:22:10;0.00;0.00;0.62;0.00;0.00;0.62;1.87;1.17;;;19.80;17.60;;;;;;2247708;61;20478;-58
2022/04/02 07:24:56;0.00;0.00;0.62;0.00;0.00;0.62;2.07;1.40;;;19.80;17.70;;;;;;2245715;61;20837;-57
2022/04/02 07:27:42;0.00;0.00;0.62;0.00;0.00;0.62;2.60;1.30;;;19.80;17.80;;;;;;2247268;61;21113;-58
2022/04/02 07:30:28;0.00;0.00;0.62;0.00;0.00;0.62;1.87;1.00;;;19.80;17.80;;;;;;2247702;61;20403;-58
2022/04/02 07:33:12;0.00;0.00;0.62;0.00;0.00;0.62;1.40;1.03;;;19.80;17.80;;;;;;2248297;61;20900;-60
2022/04/02 07:36:08;0.00;0.00;0.62;0.00;0.00;0.62;1.80;1.00;;;19.80;17.90;;;;;;2246878;61;20367;-62
2022/04/02 07:39:03;0.00;0.00;0.62;0.00;0.00;0.62;3.30;1.20;;;19.80;18.00;;;;;;2247519;61;20384;-63
2022/04/02 07:42:01;0.00;0.00;0.62;0.00;0.00;0.62;1.43;0.90;;;19.80;18.00;;;;;;2247764;61;20370;-62
2022/04/02 07:45:01;0.00;0.00;0.62;0.00;0.00;0.62;1.73;1.10;;;19.90;18.10;;;;;;2248198;61;20371;-61
2022/04/02 07:47:54;0.00;0.00;0.62;0.00;0.00;0.62;2.53;0.90;;;19.90;18.10;;;;;;2247082;61;20797;-60
2022/04/02 07:50:42;0.00;0.00;0.62;0.00;0.00;0.62;1.40;0.90;;;19.90;18.10;;;;;;2246950;61;20439;-59
2022/04/02 07:53:32;0.00;0.00;0.62;0.00;0.00;0.62;1.67;1.20;;;19.90;18.20;;;;;;2247980;61;20907;-59
2022/04/02 07:56:24;0.00;0.00;0.62;0.00;0.00;0.62;1.53;0.80;;;19.90;18.20;;;;;;2248232;61;20356;-58
2022/04/02 07:59:14;0.00;0.00;0.62;0.00;0.00;0.62;1.70;1.10;;;19.90;18.30;;;;;;2248072;61;20462;-60
2022/04/02 08:02:03;0.00;0.00;0.62;0.00;0.00;0.62;1.50;1.00;;;20.00;18.30;;;;;;2245224;61;20360;-58
2022/04/02 08:04:51;0.00;0.00;0.62;0.00;0.00;0.62;1.70;0.90;;;20.00;18.30;;;;;;2247427;61;20375;-60
2022/04/02 08:07:38;0.00;0.00;0.62;0.00;0.00;0.62;1.70;0.90;;;20.00;18.80;;;;;;2247885;61;20391;-61
2022/04/02 08:10:25;0.00;0.00;0.62;0.00;0.00;0.62;1.50;0.80;;;20.00;18.30;;;;;;2248058;61;20443;-62
2022/04/02 08:13:10;0.00;0.00;0.62;0.00;0.00;0.62;1.40;0.80;;;20.10;18.30;;;;;;2246832;61;20876;-59
2022/04/02 08:15:59;0.00;0.00;0.62;0.00;0.00;0.62;1.53;0.97;;;20.10;18.30;;;;;;2245006;61;20399;-61
2022/04/02 08:18:26;0.00;0.00;0.62;0.00;0.00;0.62;1.90;0.83;;;20.10;18.30;;;;;;2248200;61;20357;-58
2022/04/02 08:20:55;0.00;0.00;0.62;0.00;0.00;0.62;1.30;0.80;;;20.10;18.30;;;;;;2247236;61;20377;-62
2022/04/02 08:23:43;0.00;0.00;0.62;0.00;0.00;0.62;1.60;0.90;;;20.20;18.30;;;;;;2244998;61;20380;-61
2022/04/02 08:26:41;0.00;0.00;0.62;0.00;0.00;0.62;1.73;0.90;;;20.20;18.30;;;;;;2663141;46;20360;-59
2022/04/02 08:29:46;0.00;0.00;0.62;0.00;0.00;0.62;2.13;1.30;;;20.20;18.30;;;;;;2244619;61;20805;-62
2022/04/02 08:32:53;0.00;0.00;0.62;0.00;0.00;0.62;1.50;0.97;;;20.20;18.80;;;;;;2248150;61;20387;-63
2022/04/02 08:35:45;0.00;0.00;0.62;0.00;0.00;0.62;1.47;0.90;;;20.30;18.20;;;;;;2246666;61;20916;-63
2022/04/02 08:38:42;0.00;0.00;0.62;0.00;0.00;0.62;1.63;1.00;;;20.30;18.10;;;;;;2248853;61;20402;-63
2022/04/02 08:42:29;0.00;0.00;0.62;0.00;0.00;0.62;1.33;0.90;;;20.30;18.10;;;;;;2246655;61;20408;-65
2022/04/02 08:45:15;0.00;0.00;0.62;0.00;0.00;0.62;1.90;1.10;;;20.30;18.10;;;;;;2246997;61;20367;-66
2022/04/02 08:48:29;0.00;0.00;0.62;0.00;0.00;0.62;1.50;0.87;;;20.30;18.00;;;;;;2250641;61;20456;-63
2022/04/02 08:51:15;0.00;0.00;0.62;0.00;0.00;0.62;1.60;0.90;;;20.30;17.90;;;;;;2247523;61;20398;-61
2022/04/02 08:54:04;0.00;0.00;0.62;0.00;0.00;0.62;1.50;0.90;;;20.40;17.90;;;;;;2248890;61;20380;-60
2022/04/02 08:56:55;0.00;0.00;0.62;0.00;0.00;0.62;1.60;0.80;;;20.40;18.00;;;;;;2247624;61;20364;-61
2022/04/02 08:59:41;0.00;0.00;0.62;0.00;0.00;0.62;1.47;1.00;;;20.40;18.00;;;;;;2248145;61;20796;-60
2022/04/02 09:03:06;0.00;0.00;0.62;0.00;0.00;0.62;1.60;1.10;;;20.40;18.00;;;;;;2248116;61;20391;-58
2022/04/02 09:06:14;0.00;0.00;0.62;0.00;0.00;0.62;1.50;0.80;;;20.40;18.10;;;;;;2248888;61;20368;-56
2022/04/02 09:09:06;0.00;0.00;0.62;0.00;0.00;0.62;1.20;0.70;;;20.50;18.30;;;;;;2248453;61;20415;-56
2022/04/02 09:12:28;0.00;0.00;0.62;0.00;0.00;0.62;1.40;0.90;;;20.40;18.20;;;;;;2247817;61;20418;-56
2022/04/02 09:15:20;0.00;0.00;0.62;0.00;0.00;0.62;1.93;0.90;;;20.50;18.30;;;;;;2248867;61;20503;-58
2022/04/02 09:18:28;0.00;0.00;0.62;0.00;0.00;0.62;1.30;0.80;;;20.50;18.40;;;;;;2248058;61;20772;-62
2022/04/02 09:21:29;0.00;0.00;0.62;0.00;0.00;0.62;1.20;0.60;;;20.50;18.40;;;;;;2248646;61;20359;-63
2022/04/02 09:24:35;0.00;0.00;0.62;0.00;0.00;0.62;1.80;0.70;;;20.60;18.50;;;;;;2252662;61;20399;-62
2022/04/02 09:28:08;0.00;0.00;0.62;0.00;0.00;0.62;1.70;0.90;;;20.60;18.50;;;;;;2247865;61;20441;-60
2022/04/02 09:31:32;0.00;0.00;0.62;0.00;0.00;0.62;1.30;0.70;;;20.60;18.40;;;;;;2248714;61;20391;-58
2022/04/02 09:34:56;0.00;0.00;0.62;0.00;0.00;0.62;1.67;1.03;;;20.70;18.50;;;;;;2247769;61;20463;-63
2022/04/02 09:38:03;0.00;0.00;0.62;0.00;0.00;0.62;1.30;0.70;;;20.70;18.50;;;;;;2248748;61;20367;-62
2022/04/02 09:40:52;0.00;0.00;0.62;0.00;0.00;0.62;1.40;0.80;;;20.70;18.40;;;;;;2247226;61;20378;-68
2022/04/02 09:43:43;0.00;0.00;0.62;0.00;0.00;0.62;1.43;0.80;;;20.70;18.40;;;;;;2248649;61;20368;-64
2022/04/02 09:46:51;0.00;0.00;0.62;0.00;0.00;0.62;1.60;0.93;;;20.70;18.40;;;;;;2248617;61;20434;-61
2022/04/02 09:49:57;0.00;0.00;0.62;0.00;0.00;0.62;1.30;0.70;;;20.80;18.40;;;;;;2244292;61;20412;-66
2022/04/02 09:52:46;0.00;0.00;0.62;0.00;0.00;0.62;1.90;0.80;;;20.80;18.40;;;;;;2248116;61;20447;-62
2022/04/02 09:55:44;0.00;0.00;0.62;0.00;0.00;0.62;1.37;0.70;;;20.80;18.40;;;;;;2247321;61;20372;-59
2022/04/02 09:59:04;0.00;0.00;0.62;0.00;0.00;0.62;1.50;0.80;;;20.80;18.50;;;;;;2246912;40;20376;-62
2022/04/02 10:02:02;0.00;0.00;0.62;0.00;0.00;0.62;1.70;0.90;;;20.80;18.40;;;;;;2247941;61;20776;-56
2022/04/02 10:04:53;0.00;0.00;0.62;0.00;0.00;0.62;2.07;0.83;;;20.80;18.40;;;;;;2247057;61;20372;-64
2022/04/02 10:07:51;0.00;0.00;0.62;0.00;0.00;0.62;1.50;0.90;;;20.80;18.40;;;;;;2248011;61;20524;-66
2022/04/02 10:10:38;0.00;0.00;0.62;0.00;0.00;0.62;1.47;0.97;;;20.90;18.50;;;;;;2242790;61;20920;-67
2022/04/02 10:13:24;0.00;0.00;0.62;0.00;0.00;0.62;1.40;0.70;;;20.90;18.40;;;;;;2243370;61;20783;-58
2022/04/02 10:16:12;0.00;0.00;0.62;0.00;0.00;0.62;1.40;0.87;;;20.90;18.50;;;;;;2243298;61;20428;-58
2022/04/02 10:18:59;0.00;0.00;0.62;0.00;0.00;0.62;1.43;0.80;;;20.90;18.40;;;;;;2242738;61;20909;-60
2022/04/02 10:21:50;0.00;0.00;0.62;0.00;0.00;0.62;2.50;0.90;;;20.90;18.40;;;;;;2244014;61;20412;-61
2022/04/02 10:24:40;0.00;0.00;0.62;0.00;0.00;0.62;1.43;0.80;;;21.00;18.50;;;;;;2243305;61;20373;-61
2022/04/02 10:27:33;0.00;0.00;0.62;0.00;0.00;0.62;1.30;0.80;;;21.00;18.40;;;;;;2243737;61;20412;-61
2022/04/02 10:30:19;0.00;0.00;0.62;0.00;0.00;0.62;1.30;0.90;;;21.00;18.40;;;;;;2243749;61;20392;-61
2022/04/02 10:33:29;0.00;0.00;0.62;0.00;0.00;0.62;1.40;0.80;;;21.00;18.40;;;;;;2242699;61;20461;-60
2022/04/02 10:36:13;0.00;0.00;0.62;0.00;0.00;0.62;1.30;0.80;;;21.00;18.30;;;;;;2244099;61;20889;-63
2022/04/02 10:38:59;0.00;0.00;0.62;0.00;0.00;0.62;1.30;0.70;;;21.00;18.30;;;;;;2243597;61;20484;-60
2022/04/02 10:41:47;0.00;0.00;0.62;0.00;0.00;0.62;1.50;0.90;;;21.00;18.30;;;;;;2240642;61;20365;-60
2022/04/02 10:44:44;0.00;0.00;0.62;0.00;0.00;0.62;1.53;0.90;;;21.10;18.30;;;;;;2243998;61;20397;-63
2022/04/02 10:47:30;0.00;0.00;0.62;0.00;0.00;0.62;1.30;0.80;;;21.10;18.30;;;;;;2242763;61;20361;-60
2022/04/02 10:50:19;0.00;0.00;0.62;0.00;0.00;0.62;1.30;0.80;;;21.10;18.30;;;;;;2243703;61;20400;-62
2022/04/02 10:53:05;0.00;0.00;0.62;0.00;0.00;0.62;1.80;0.87;;;21.10;18.20;;;;;;2243814;61;20777;-61
2022/04/02 10:55:59;0.00;0.00;0.62;0.00;0.00;0.62;1.70;1.00;;;21.10;18.20;;;;;;2242370;61;20428;-61